Time;durP1;ratioP1;P1;durP2;ratioP2;P2;SDS_P1;SDS_P2;PMS_P1;PMS_P2;Temp;Humidity;BMP_temperature;BMP_pressure;BME280_temperature;BME280_humidity;BME280_pressure;Samples;Min_cycle;Max_cycle;Signal;HPM_P1;HPM_P2
2024/02/02 00:00:56;;;;;;;6.50;2.42;;;10.80;62.20;;;;;;5002663;28;20048;-81
2024/02/02 00:03:21;;;;;;;9.45;3.08;;;10.90;62.40;;;;;;5022163;28;20335;-83
2024/02/02 00:05:47;;;;;;;7.70;2.78;;;10.80;62.30;;;;;;5020319;28;20527;-82
2024/02/02 00:08:14;;;;;;;11.57;2.95;;;10.90;62.60;;;;;;5004550;28;20041;-82
2024/02/02 00:10:40;;;;;;;6.63;2.88;;;10.80;62.50;;;;;;5024109;28;20037;-81
2024/02/02 00:13:06;;;;;;;10.02;3.08;;;10.80;62.50;;;;;;5006043;28;20108;-82
2024/02/02 00:15:32;;;;;;;9.02;3.17;;;10.90;62.80;;;;;;5003276;28;20026;-81
2024/02/02 00:17:58;;;;;;;9.32;3.05;;;10.80;62.60;;;;;;4986384;28;20048;-81
2024/02/02 00:20:24;;;;;;;12.80;3.78;;;10.80;62.70;;;;;;5022526;28;20079;-81
2024/02/02 00:22:50;;;;;;;9.57;3.03;;;10.80;62.80;;;;;;5003658;28;20037;-81
2024/02/02 00:25:17;;;;;;;8.30;2.17;;;10.80;62.80;;;;;;5003213;28;20034;-81
2024/02/02 00:27:43;;;;;;;13.38;4.38;;;10.80;62.90;;;;;;5023758;28;20037;-83
2024/02/02 00:30:09;;;;;;;10.80;2.83;;;10.80;63.00;;;;;;5022957;28;20080;-81
2024/02/02 00:32:35;;;;;;;14.52;3.50;;;10.80;63.00;;;;;;5021565;28;20432;-81
2024/02/02 00:35:01;;;;;;;9.05;2.92;;;10.80;63.10;;;;;;5005605;28;20026;-82
2024/02/02 00:37:27;;;;;;;6.72;2.60;;;10.90;63.30;;;;;;5021515;28;20037;-80
2024/02/02 00:39:53;;;;;;;11.32;3.50;;;10.80;63.30;;;;;;5020456;28;20389;-81
2024/02/02 00:42:19;;;;;;;12.95;3.47;;;10.80;63.30;;;;;;5021263;28;20124;-82
2024/02/02 00:44:45;;;;;;;10.35;2.95;;;10.80;63.30;;;;;;5009359;28;20029;-80
2024/02/02 00:47:11;;;;;;;14.48;4.18;;;10.80;63.30;;;;;;4997324;28;20493;-81
2024/02/02 00:49:39;;;;;;;9.80;3.40;;;10.80;63.30;;;;;;5003462;28;20056;-81
2024/02/02 00:52:05;;;;;;;9.98;3.53;;;10.80;63.30;;;;;;5000684;28;20363;-81
2024/02/02 00:54:31;;;;;;;11.65;3.33;;;10.80;63.40;;;;;;5019568;28;20523;-82
2024/02/02 00:56:57;;;;;;;7.47;3.03;;;10.80;63.40;;;;;;5004354;28;20037;-83
2024/02/02 00:59:23;;;;;;;11.52;2.88;;;10.80;63.50;;;;;;5021239;28;20021;-81
2024/02/02 01:01:50;;;;;;;13.73;4.15;;;10.80;63.50;;;;;;5016245;28;20036;-81
2024/02/02 01:04:16;;;;;;;7.03;2.45;;;10.70;63.40;;;;;;5019794;28;20033;-82
2024/02/02 01:06:42;;;;;;;10.20;3.33;;;10.70;63.50;;;;;;5021227;28;20472;-80
2024/02/02 01:09:08;;;;;;;14.05;4.93;;;10.80;63.70;;;;;;5017509;28;20473;-82
2024/02/02 01:11:35;;;;;;;7.78;2.83;;;10.80;63.80;;;;;;5004452;28;20065;-82
2024/02/02 01:14:01;;;;;;;5.93;2.90;;;10.80;63.80;;;;;;5001278;28;20107;-82
2024/02/02 01:16:27;;;;;;;7.18;2.55;;;10.80;63.80;;;;;;5018629;28;20036;-82
2024/02/02 01:18:56;;;;;;;10.02;3.25;;;10.70;63.70;;;;;;5020204;28;20052;-82
2024/02/02 01:21:24;;;;;;;10.07;2.75;;;10.70;63.70;;;;;;5022577;28;20045;-81
2024/02/02 01:23:51;;;;;;;7.45;2.65;;;10.80;64.00;;;;;;5017218;28;20030;-82
2024/02/02 01:26:18;;;;;;;8.90;2.55;;;10.70;63.90;;;;;;5017416;28;20032;-82
2024/02/02 01:28:44;;;;;;;12.90;2.92;;;10.70;63.90;;;;;;5021454;28;20130;-82
2024/02/02 01:31:10;;;;;;;8.50;2.20;;;10.70;63.90;;;;;;5020337;28;20064;-82
2024/02/02 01:33:36;;;;;;;11.52;3.03;;;10.70;64.00;;;;;;5002180;28;20029;-82
2024/02/02 01:36:02;;;;;;;11.05;3.00;;;10.70;64.00;;;;;;5019267;28;20037;-82
2024/02/02 01:38:28;;;;;;;9.70;2.65;;;10.70;64.00;;;;;;5016455;28;20045;-82
2024/02/02 01:40:54;;;;;;;8.60;2.95;;;10.80;64.20;;;;;;5001806;28;20068;-82
2024/02/02 01:43:23;;;;;;;6.60;3.05;;;10.70;64.10;;;;;;5003386;28;20384;-82
2024/02/02 01:45:51;;;;;;;13.75;3.60;;;10.70;64.10;;;;;;5018265;28;20430;-82
2024/02/02 01:48:17;;;;;;;5.85;2.15;;;10.80;64.40;;;;;;5018757;28;20401;-82
2024/02/02 01:50:43;;;;;;;8.73;2.70;;;10.70;64.20;;;;;;5014490;28;20509;-83
2024/02/02 01:53:10;;;;;;;7.15;2.45;;;10.70;64.30;;;;;;5018324;28;20037;-83
2024/02/02 01:55:36;;;;;;;7.28;2.53;;;10.80;64.50;;;;;;5018562;28;20040;-80
2024/02/02 01:58:02;;;;;;;7.35;2.95;;;10.70;64.40;;;;;;5019281;28;20056;-82
2024/02/02 02:00:28;;;;;;;7.60;2.75;;;10.70;64.40;;;;;;5019978;28;20034;-83
2024/02/02 02:02:54;;;;;;;8.00;3.08;;;10.70;65.00;;;;;;5020960;28;20911;-83
2024/02/02 02:05:20;;;;;;;8.80;2.83;;;10.70;64.50;;;;;;5020040;28;20028;-83
2024/02/02 02:07:46;;;;;;;5.78;2.40;;;10.70;64.60;;;;;;5019467;28;20513;-82
2024/02/02 02:10:13;;;;;;;6.20;3.00;;;10.70;64.60;;;;;;5003029;28;20037;-83
2024/02/02 02:12:42;;;;;;;8.55;3.67;;;10.70;64.60;;;;;;5021440;28;20025;-81
2024/02/02 02:15:10;;;;;;;8.40;3.00;;;10.70;64.70;;;;;;5002486;28;20529;-82
2024/02/02 02:17:37;;;;;;;6.32;2.30;;;10.80;64.90;;;;;;5003830;28;20063;-82
2024/02/02 02:20:09;;;;;;;7.72;2.70;;;10.70;64.80;;;;;;5002909;28;20253;-83
2024/02/02 02:22:35;;;;;;;5.57;2.83;;;10.70;64.80;;;;;;5019667;28;20029;-83
2024/02/02 02:25:01;;;;;;;5.32;2.67;;;10.70;64.80;;;;;;5000896;28;20025;-82
2024/02/02 02:27:28;;;;;;;7.10;3.10;;;10.80;65.00;;;;;;4988863;28;20234;-83
2024/02/02 02:29:54;;;;;;;8.85;2.53;;;10.80;65.10;;;;;;4983899;28;20056;-83
2024/02/02 02:32:20;;;;;;;9.00;3.22;;;10.70;64.90;;;;;;5003097;28;20145;-82
2024/02/02 02:34:46;;;;;;;4.70;2.92;;;10.80;65.20;;;;;;5017475;28;20490;-82
2024/02/02 02:37:13;;;;;;;8.20;2.60;;;10.80;65.20;;;;;;5019316;28;20042;-78
2024/02/02 02:39:39;;;;;;;10.75;4.85;;;10.80;65.20;;;;;;5019843;28;20084;-80
2024/02/02 02:42:05;;;;;;;10.13;3.10;;;10.80;65.30;;;;;;5005388;28;20552;-79
2024/02/02 02:44:31;;;;;;;7.80;2.95;;;10.80;65.30;;;;;;5004370;28;20030;-79
2024/02/02 02:46:58;;;;;;;6.00;2.53;;;10.90;65.50;;;;;;5009000;28;20037;-79
2024/02/02 02:49:23;;;;;;;7.15;2.67;;;10.90;65.50;;;;;;5010464;28;20120;-79
2024/02/02 02:51:50;;;;;;;8.43;3.17;;;10.90;65.50;;;;;;5026482;28;20543;-79
2024/02/02 02:54:16;;;;;;;7.60;2.67;;;10.90;65.50;;;;;;5024960;28;20419;-78
2024/02/02 02:56:43;;;;;;;7.63;2.75;;;10.90;65.50;;;;;;5029284;28;20129;-78
2024/02/02 02:59:09;;;;;;;6.35;2.35;;;10.90;65.60;;;;;;5028054;28;20025;-78
2024/02/02 03:01:35;;;;;;;6.15;2.35;;;10.90;65.60;;;;;;5029180;28;20052;-79
2024/02/02 03:04:01;;;;;;;6.88;2.78;;;10.90;65.60;;;;;;5007441;28;20480;-80
2024/02/02 03:06:28;;;;;;;6.03;2.28;;;10.90;65.70;;;;;;5028828;28;20119;-79
2024/02/02 03:08:54;;;;;;;5.35;2.70;;;10.90;65.70;;;;;;5007907;28;20029;-79
2024/02/02 03:11:20;;;;;;;5.95;2.10;;;10.90;65.70;;;;;;5011271;28;20045;-79
2024/02/02 03:13:46;;;;;;;4.25;2.33;;;11.00;66.50;;;;;;5006546;28;20045;-79
2024/02/02 03:16:12;;;;;;;5.28;2.70;;;11.00;66.00;;;;;;5010836;28;20658;-79
2024/02/02 03:18:38;;;;;;;5.40;2.22;;;11.00;66.00;;;;;;5028058;28;20030;-78
2024/02/02 03:21:04;;;;;;;6.68;2.35;;;11.00;66.00;;;;;;5027437;28;20030;-79
2024/02/02 03:23:30;;;;;;;2.72;1.80;;;11.00;66.10;;;;;;5026410;28;20429;-79
2024/02/02 03:25:56;;;;;;;4.63;2.10;;;11.00;66.10;;;;;;5027716;28;20021;-80
2024/02/02 03:28:22;;;;;;;4.65;2.22;;;11.00;66.60;;;;;;5027928;28;20027;-79
2024/02/02 03:30:49;;;;;;;2.97;1.90;;;11.00;66.10;;;;;;5027059;28;20100;-78
2024/02/02 03:33:17;;;;;;;5.20;2.15;;;11.00;66.20;;;;;;5008072;28;20663;-78
2024/02/02 03:35:43;;;;;;;3.25;1.83;;;11.10;66.40;;;;;;5027387;28;20384;-79
2024/02/02 03:38:09;;;;;;;3.55;2.08;;;11.10;66.40;;;;;;5026610;28;20041;-79
2024/02/02 03:40:35;;;;;;;4.47;2.22;;;11.00;66.20;;;;;;5023995;28;20436;-79
2024/02/02 03:43:01;;;;;;;4.22;2.03;;;11.10;66.50;;;;;;5028660;28;20030;-79
2024/02/02 03:45:29;;;;;;;4.78;2.88;;;11.10;66.50;;;;;;5028133;28;20037;-79
2024/02/02 03:47:55;;;;;;;3.80;2.03;;;11.10;66.50;;;;;;5008253;28;20076;-79
2024/02/02 03:50:21;;;;;;;3.58;1.80;;;11.10;66.60;;;;;;5025545;28;20064;-79
2024/02/02 03:52:50;;;;;;;2.25;1.83;;;11.10;66.60;;;;;;5027600;28;20038;-80
2024/02/02 03:55:17;;;;;;;4.57;1.83;;;11.20;66.80;;;;;;5026682;28;20175;-80
2024/02/02 03:57:46;;;;;;;3.88;2.28;;;11.10;66.60;;;;;;5006665;28;20065;-78
2024/02/02 04:00:12;;;;;;;3.67;1.80;;;11.20;66.80;;;;;;5009995;28;20040;-80
2024/02/02 04:02:39;;;;;;;2.25;1.45;;;11.20;66.90;;;;;;5027343;28;20063;-80
2024/02/02 04:05:06;;;;;;;2.28;1.65;;;11.20;66.90;;;;;;5009695;28;20063;-79
2024/02/02 04:07:32;;;;;;;2.42;1.60;;;11.20;66.90;;;;;;5010377;28;20075;-79
2024/02/02 04:09:58;;;;;;;2.58;1.90;;;11.20;66.90;;;;;;5009806;28;20025;-78
2024/02/02 04:12:25;;;;;;;2.00;1.52;;;11.30;67.10;;;;;;5010976;28;20083;-79
2024/02/02 04:14:52;;;;;;;2.40;2.10;;;11.20;67.20;;;;;;5010018;28;20037;-80
2024/02/02 04:17:18;;;;;;;1.65;1.20;;;11.30;67.20;;;;;;5009032;28;20038;-79
2024/02/02 04:19:44;;;;;;;2.45;1.40;;;11.30;67.20;;;;;;5028329;28;20036;-79
2024/02/02 04:22:11;;;;;;;1.88;1.40;;;11.30;67.20;;;;;;5008479;28;20033;-78
2024/02/02 04:24:37;;;;;;;1.88;1.20;;;11.30;67.30;;;;;;5023378;28;20354;-79
2024/02/02 04:27:03;;;;;;;3.70;1.60;;;11.30;67.20;;;;;;5026778;28;20033;-78
2024/02/02 04:29:29;;;;;;;2.33;1.45;;;11.30;67.30;;;;;;5028245;28;20380;-78
2024/02/02 04:31:58;;;;;;;3.00;1.50;;;11.30;67.30;;;;;;5027125;28;20029;-78
2024/02/02 04:34:24;;;;;;;1.50;1.38;;;11.30;67.30;;;;;;5009119;28;20409;-79
2024/02/02 04:36:50;;;;;;;1.35;1.25;;;11.30;67.30;;;;;;5026483;28;20041;-79
2024/02/02 04:39:16;;;;;;;2.28;1.52;;;11.30;67.40;;;;;;5011399;28;20484;-78
2024/02/02 04:41:42;;;;;;;2.85;1.48;;;11.30;67.40;;;;;;5027578;28;20041;-79
2024/02/02 04:44:08;;;;;;;1.52;1.20;;;11.30;67.40;;;;;;5024569;28;20029;-80
2024/02/02 04:46:33;;;;;;;2.53;1.60;;;11.30;67.40;;;;;;5026261;28;20094;-79
2024/02/02 04:48:59;;;;;;;2.33;1.80;;;11.30;68.00;;;;;;5024443;28;20041;-79
2024/02/02 04:51:25;;;;;;;1.75;1.58;;;11.30;67.50;;;;;;5025717;28;20167;-79
2024/02/02 04:53:51;;;;;;;2.25;1.80;;;11.30;67.50;;;;;;5001500;28;20793;-79
2024/02/02 04:56:17;;;;;;;2.15;1.52;;;11.30;67.50;;;;;;5027047;28;20065;-81
2024/02/02 04:58:43;;;;;;;1.73;1.40;;;11.30;67.50;;;;;;5007492;28;20504;-79
2024/02/02 05:01:09;;;;;;;2.50;1.83;;;11.30;67.50;;;;;;5031661;28;20026;-78
2024/02/02 05:03:36;;;;;;;2.22;1.70;;;11.30;67.50;;;;;;5024809;28;20029;-80
2024/02/02 05:06:02;;;;;;;2.45;1.40;;;11.30;67.50;;;;;;5025238;28;20036;-79
2024/02/02 05:08:28;;;;;;;1.70;1.35;;;11.30;67.60;;;;;;5024395;28;20033;-81
2024/02/02 05:10:54;;;;;;;1.77;1.58;;;11.30;67.60;;;;;;5026581;28;20033;-79
2024/02/02 05:13:20;;;;;;;2.10;1.42;;;11.30;67.60;;;;;;5026196;28;20030;-80
2024/02/02 05:15:46;;;;;;;1.85;1.52;;;11.30;67.60;;;;;;5008797;28;20199;-79
2024/02/02 05:18:11;;;;;;;1.65;1.55;;;11.30;67.60;;;;;;5024192;28;20507;-79
2024/02/02 05:20:38;;;;;;;1.52;1.40;;;11.30;67.60;;;;;;5026683;28;20393;-79
2024/02/02 05:23:04;;;;;;;1.52;1.42;;;11.40;67.80;;;;;;5023457;28;20487;-78
2024/02/02 05:25:30;;;;;;;2.20;1.50;;;11.30;67.70;;;;;;5003729;28;20064;-79
2024/02/02 05:27:56;;;;;;;1.27;1.17;;;11.30;67.80;;;;;;5026276;28;20034;-79
2024/02/02 05:30:22;;;;;;;1.85;1.70;;;11.30;67.80;;;;;;5026846;28;20045;-79
2024/02/02 05:32:48;;;;;;;1.65;1.50;;;11.30;67.80;;;;;;5021269;28;20041;-79
2024/02/02 05:35:14;;;;;;;1.25;1.15;;;11.40;68.10;;;;;;5025956;28;20607;-78
2024/02/02 05:37:41;;;;;;;2.03;1.23;;;11.30;67.90;;;;;;5024241;28;20091;-79
2024/02/02 05:40:08;;;;;;;1.30;1.20;;;11.30;68.40;;;;;;5026454;28;20067;-79
2024/02/02 05:42:33;;;;;;;1.15;1.05;;;11.40;68.10;;;;;;5026559;28;20034;-78
2024/02/02 05:44:59;;;;;;;1.38;1.27;;;11.30;68.00;;;;;;5024575;28;20997;-78
2024/02/02 05:47:26;;;;;;;1.35;1.17;;;11.40;68.20;;;;;;5019673;28;20049;-79
2024/02/02 05:49:52;;;;;;;1.30;0.82;;;11.40;68.20;;;;;;5011424;28;20076;-79
2024/02/02 05:52:19;;;;;;;1.38;0.85;;;11.40;68.20;;;;;;5021084;28;20037;-79
2024/02/02 05:54:44;;;;;;;1.00;1.00;;;11.40;68.30;;;;;;5018608;28;20030;-78
2024/02/02 05:57:10;;;;;;;0.88;0.85;;;11.40;68.30;;;;;;5021963;28;20046;-80
2024/02/02 05:59:36;;;;;;;0.95;0.93;;;11.40;68.30;;;;;;5020826;28;20091;-78
2024/02/02 06:02:02;;;;;;;1.85;1.00;;;11.50;68.50;;;;;;4999244;28;20033;-77
2024/02/02 06:04:28;;;;;;;1.00;0.60;;;11.50;68.60;;;;;;5024039;28;20362;-80
2024/02/02 06:06:54;;;;;;;0.75;0.60;;;11.50;68.60;;;;;;5013546;28;20060;-83
2024/02/02 06:09:20;;;;;;;1.85;0.88;;;11.50;68.60;;;;;;5015632;28;20095;-83
2024/02/02 06:11:45;;;;;;;0.70;0.50;;;11.50;68.60;;;;;;5000926;28;20037;-82
2024/02/02 06:14:11;;;;;;;2.00;0.80;;;11.60;68.80;;;;;;5001314;28;20040;-82
2024/02/02 06:16:38;;;;;;;1.08;0.73;;;11.60;68.80;;;;;;5018291;28;20077;-83
2024/02/02 06:19:04;;;;;;;0.80;0.75;;;11.60;68.90;;;;;;5018070;28;20029;-82
2024/02/02 06:21:29;;;;;;;1.55;0.85;;;11.60;68.80;;;;;;5021432;28;20033;-80
2024/02/02 06:23:55;;;;;;;10.27;2.95;;;11.60;68.90;;;;;;5032690;28;20080;-78
2024/02/02 06:26:22;;;;;;;19.58;4.82;;;11.60;69.00;;;;;;5026752;28;20907;-78
2024/02/02 06:28:48;;;;;;;28.60;7.15;;;11.60;69.00;;;;;;5027078;28;20184;-79
2024/02/02 06:31:14;;;;;;;35.00;11.60;;;11.60;69.20;;;;;;5008520;28;20457;-79
2024/02/02 06:33:40;;;;;;;47.10;13.35;;;11.60;69.30;;;;;;5002094;28;20068;-81
2024/02/02 06:36:07;;;;;;;49.50;16.05;;;11.70;69.60;;;;;;5019938;28;20305;-81
2024/02/02 06:38:33;;;;;;;42.53;13.07;;;11.80;69.80;;;;;;5001260;28;20068;-79
2024/02/02 06:40:59;;;;;;;41.95;11.25;;;11.80;69.90;;;;;;5003444;28;20032;-81
2024/02/02 06:43:28;;;;;;;30.95;10.43;;;11.90;70.10;;;;;;5005673;28;20128;-81
2024/02/02 06:45:54;;;;;;;35.38;11.10;;;11.80;69.90;;;;;;5013788;28;20072;-84
2024/02/02 06:48:21;;;;;;;26.98;9.02;;;11.90;70.10;;;;;;5000207;28;20300;-82
2024/02/02 06:50:47;;;;;;;33.15;10.55;;;11.80;69.90;;;;;;5001469;28;20037;-82
2024/02/02 06:53:15;;;;;;;21.05;8.40;;;11.80;70.00;;;;;;5023954;28;20036;-81
2024/02/02 06:55:40;;;;;;;20.02;6.60;;;11.80;70.00;;;;;;5012931;28;20033;-81
2024/02/02 06:58:36;;;;;;;21.02;7.03;;;11.80;70.00;;;;;;5028018;28;20041;-81
2024/02/02 07:01:06;;;;;;;18.33;7.22;;;11.70;69.90;;;;;;4998250;28;20552;-81
2024/02/02 07:03:33;;;;;;;15.75;5.85;;;11.70;69.90;;;;;;5015248;28;20787;-82
2024/02/02 07:05:59;;;;;;;16.25;5.97;;;11.70;70.00;;;;;;5020324;28;20033;-79
2024/02/02 07:08:26;;;;;;;13.85;5.65;;;11.70;70.00;;;;;;5025283;28;20384;-81
2024/02/02 07:11:25;;;;;;;14.63;6.50;;;11.60;69.80;;;;;;5018004;28;20474;-80
2024/02/02 07:13:52;;;;;;;12.65;5.82;;;11.70;70.10;;;;;;5003192;28;20037;-77
2024/02/02 07:16:30;;;;;;;11.38;5.50;;;11.70;70.10;;;;;;5014055;28;20034;-78
2024/02/02 07:18:56;;;;;;;10.43;4.72;;;11.70;70.30;;;;;;5011284;28;20052;-80
2024/02/02 07:21:32;;;;;;;11.80;3.95;;;11.70;70.30;;;;;;5003878;28;20060;-80
2024/02/02 07:23:59;;;;;;;9.43;4.57;;;11.80;70.70;;;;;;4993969;28;20029;-80
2024/02/02 07:26:30;;;;;;;8.77;4.30;;;11.80;70.60;;;;;;4997731;28;20029;-80
2024/02/02 07:28:57;;;;;;;9.57;3.90;;;11.90;70.80;;;;;;5003017;28;20029;-78
2024/02/02 07:31:47;;;;;;;6.18;4.05;;;11.90;70.80;;;;;;5001323;28;20041;-79
2024/02/02 07:34:32;;;;;;;7.55;3.47;;;11.90;71.00;;;;;;5023582;28;20500;-80
2024/02/02 07:36:58;;;;;;;7.70;3.38;;;12.00;71.00;;;;;;4996806;28;20133;-79
2024/02/02 07:39:30;;;;;;;6.15;3.38;;;12.00;71.00;;;;;;5019009;28;20033;-79
2024/02/02 07:41:57;;;;;;;6.80;3.33;;;12.00;71.10;;;;;;5004105;28;20392;-79
2024/02/02 07:44:25;;;;;;;4.68;2.67;;;12.10;71.20;;;;;;5017632;28;20404;-79
2024/02/02 07:46:51;;;;;;;4.82;3.03;;;12.10;71.80;;;;;;5016477;28;20140;-82
2024/02/02 07:49:17;;;;;;;5.97;3.13;;;12.10;71.20;;;;;;4997633;28;20041;-78
2024/02/02 07:51:43;;;;;;;2.88;2.30;;;12.20;71.40;;;;;;5010286;28;20033;-80
2024/02/02 07:54:09;;;;;;;4.65;2.70;;;12.20;71.40;;;;;;5023926;28;20103;-80
2024/02/02 07:56:35;;;;;;;4.00;2.35;;;12.20;71.40;;;;;;5013751;28;20044;-79
2024/02/02 07:59:01;;;;;;;4.25;2.40;;;12.30;71.60;;;;;;5022882;28;20040;-78
2024/02/02 08:01:34;;;;;;;5.10;2.45;;;12.30;71.60;;;;;;5023885;28;20030;-80
2024/02/02 08:04:01;;;;;;;4.68;2.38;;;12.30;71.60;;;;;;5015702;28;20037;-80
2024/02/02 08:06:27;;;;;;;3.83;2.10;;;12.40;71.70;;;;;;5020874;28;20041;-80
2024/02/02 08:08:53;;;;;;;4.20;2.35;;;12.40;71.70;;;;;;5023022;28;20132;-80
2024/02/02 08:11:24;;;;;;;3.35;2.08;;;12.40;71.70;;;;;;5017113;28;20381;-79
2024/02/02 08:13:50;;;;;;;5.72;2.58;;;12.40;72.20;;;;;;5027061;28;20034;-80
2024/02/02 08:16:16;;;;;;;2.88;1.55;;;12.50;71.80;;;;;;5018717;28;20090;-80
2024/02/02 08:18:42;;;;;;;2.25;1.60;;;12.50;71.90;;;;;;5026445;28;20082;-80
2024/02/02 08:21:08;;;;;;;2.88;1.48;;;12.50;71.90;;;;;;5022468;28;20038;-79
2024/02/02 08:23:34;;;;;;;2.53;1.45;;;12.50;71.80;;;;;;5018173;28;20136;-80
2024/02/02 08:26:00;;;;;;;2.13;1.45;;;12.50;71.90;;;;;;5016912;28;20045;-79
2024/02/02 08:28:26;;;;;;;2.33;1.27;;;12.60;72.00;;;;;;5021284;28;20116;-80
2024/02/02 08:30:55;;;;;;;2.20;1.65;;;12.60;72.00;;;;;;4993790;28;20066;-79
2024/02/02 08:33:21;;;;;;;2.75;1.55;;;12.70;72.20;;;;;;5017277;28;20037;-80
2024/02/02 08:35:47;;;;;;;1.85;1.27;;;12.70;72.20;;;;;;5012856;28;20063;-78
2024/02/02 08:38:14;;;;;;;1.85;1.45;;;12.70;72.10;;;;;;5015957;28;20042;-79
2024/02/02 08:40:43;;;;;;;1.73;1.40;;;12.80;72.30;;;;;;5017678;28;20045;-79
2024/02/02 08:43:13;;;;;;;2.10;1.27;;;12.80;72.20;;;;;;5019122;28;20034;-78
2024/02/02 08:45:42;;;;;;;1.75;1.05;;;12.80;72.20;;;;;;5001335;28;20033;-78
2024/02/02 08:48:37;;;;;;;2.92;0.93;;;12.90;72.40;;;;;;5015721;28;20057;-79
2024/02/02 08:51:20;;;;;;;1.50;0.82;;;12.90;72.40;;;;;;5010348;28;20481;-79
2024/02/02 08:53:46;;;;;;;0.77;0.60;;;12.90;72.20;;;;;;5014088;28;20069;-80
2024/02/02 08:56:14;;;;;;;0.90;0.80;;;13.00;72.30;;;;;;5007526;28;20083;-80
2024/02/02 08:58:41;;;;;;;0.88;0.68;;;13.00;72.30;;;;;;5006836;28;20073;-79
2024/02/02 09:01:41;;;;;;;2.13;0.98;;;13.10;72.40;;;;;;5019646;28;20024;-81
2024/02/02 09:04:51;;;;;;;0.70;0.52;;;13.10;72.40;;;;;;4986083;28;20033;-80
2024/02/02 09:07:17;;;;;;;2.00;0.90;;;13.20;72.50;;;;;;5017390;28;20114;-79
2024/02/02 09:09:45;;;;;;;1.33;0.70;;;13.20;72.30;;;;;;5018671;28;20038;-81
2024/02/02 09:12:11;;;;;;;0.77;0.60;;;13.30;72.30;;;;;;5020330;28;20037;-80
2024/02/02 09:14:37;;;;;;;0.63;0.40;;;13.30;72.30;;;;;;4995307;28;20037;-79
2024/02/02 09:17:06;;;;;;;1.10;0.60;;;13.30;72.20;;;;;;5015792;28;20548;-78
2024/02/02 09:19:45;;;;;;;1.10;0.60;;;13.40;72.30;;;;;;4984809;28;20037;-80
2024/02/02 09:22:15;;;;;;;1.83;0.80;;;13.50;72.40;;;;;;5009595;28;20557;-79
2024/02/02 09:24:51;;;;;;;2.05;0.50;;;13.50;72.30;;;;;;5015494;28;20359;-79
2024/02/02 09:27:35;;;;;;;0.85;0.50;;;13.60;72.40;;;;;;4994001;28;20120;-79
2024/02/02 09:30:10;;;;;;;1.15;0.50;;;13.60;72.20;;;;;;4998748;28;20057;-79
2024/02/02 09:32:39;;;;;;;0.85;0.55;;;13.70;72.30;;;;;;5001970;28;20033;-80
2024/02/02 09:35:57;;;;;;;1.45;0.60;;;13.70;72.20;;;;;;5009224;28;20274;-80
2024/02/02 09:38:25;;;;;;;2.13;0.40;;;13.80;72.30;;;;;;4987553;28;20045;-80
2024/02/02 09:41:01;;;;;;;1.10;0.60;;;13.80;72.10;;;;;;4993678;28;20037;-80
2024/02/02 09:43:48;;;;;;;1.38;1.23;;;13.80;72.10;;;;;;4996604;28;20025;-79
2024/02/02 09:46:51;;;;;;;1.52;0.47;;;13.90;72.20;;;;;;4993089;28;20587;-79
2024/02/02 09:49:27;;;;;;;1.90;0.50;;;13.90;72.20;;;;;;5014942;28;20248;-80
2024/02/02 09:52:30;;;;;;;1.52;0.52;;;13.90;72.10;;;;;;5017913;28;20029;-80
2024/02/02 09:55:16;;;;;;;1.63;0.50;;;13.90;72.10;;;;;;5015677;28;20037;-79
2024/02/02 09:57:53;;;;;;;1.63;0.60;;;14.00;72.10;;;;;;5000372;28;20036;-79
2024/02/02 10:00:51;;;;;;;1.38;0.65;;;14.00;72.10;;;;;;5003909;28;20029;-79
2024/02/02 10:03:51;;;;;;;0.82;0.30;;;14.10;72.20;;;;;;4998476;28;20041;-79
2024/02/02 10:06:50;;;;;;;0.77;0.40;;;14.10;72.10;;;;;;5001154;28;20052;-81
2024/02/02 10:09:42;;;;;;;1.33;0.43;;;14.20;72.10;;;;;;5013910;28;20026;-81
2024/02/02 10:12:40;;;;;;;1.33;1.02;;;14.20;72.00;;;;;;5017046;28;20473;-80
2024/02/02 10:15:22;;;;;;;1.23;0.47;;;14.30;72.00;;;;;;5015771;28;20040;-79
2024/02/02 10:18:08;;;;;;;0.57;0.35;;;14.40;72.10;;;;;;4994264;28;20048;-80
2024/02/02 10:20:59;;;;;;;2.42;0.60;;;14.40;71.90;;;;;;5008512;28;20377;-79
2024/02/02 10:24:35;;;;;;;0.45;0.40;;;14.50;72.00;;;;;;4999132;28;20025;-79
2024/02/02 10:27:36;;;;;;;1.30;0.45;;;14.60;71.90;;;;;;4936758;28;20337;-78
2024/02/02 10:30:12;;;;;;;0.50;0.38;;;14.70;71.70;;;;;;4939299;28;20041;-78
2024/02/02 10:33:24;;;;;;;0.28;0.20;;;14.90;71.70;;;;;;4994043;28;20492;-79
2024/02/02 10:36:08;;;;;;;1.05;0.50;;;15.00;71.60;;;;;;5006862;28;20049;-80
2024/02/02 10:38:40;;;;;;;0.32;0.30;;;15.10;71.50;;;;;;5015580;28;20061;-80
2024/02/02 10:41:39;;;;;;;0.93;0.40;;;15.20;71.40;;;;;;4994584;28;20275;-82
2024/02/02 10:44:21;;;;;;;1.60;0.55;;;15.30;71.40;;;;;;4963386;28;20038;-80
2024/02/02 10:47:09;;;;;;;1.60;0.50;;;15.30;71.20;;;;;;5016938;28;20171;-81
2024/02/02 10:50:05;;;;;;;0.45;0.45;;;15.50;71.20;;;;;;5013033;28;20069;-80
2024/02/02 10:52:47;;;;;;;2.58;0.50;;;15.60;71.10;;;;;;5016502;28;20116;-80
2024/02/02 10:55:31;;;;;;;1.00;0.40;;;15.70;71.00;;;;;;5017588;28;20029;-81
2024/02/02 10:58:24;;;;;;;0.85;0.45;;;15.80;70.80;;;;;;5011784;28;20042;-80
2024/02/02 11:01:15;;;;;;;1.40;0.28;;;15.90;70.70;;;;;;5009261;28;20034;-79
2024/02/02 11:04:14;;;;;;;0.85;0.40;;;16.00;70.50;;;;;;5019094;28;20071;-80
2024/02/02 11:07:06;;;;;;;0.50;0.25;;;16.10;70.40;;;;;;5021571;28;20045;-80
2024/02/02 11:09:57;;;;;;;1.13;0.45;;;16.20;70.30;;;;;;5014007;28;20196;-81
2024/02/02 11:12:53;;;;;;;0.70;0.30;;;16.30;70.20;;;;;;5016533;28;20029;-81
2024/02/02 11:15:35;;;;;;;0.40;0.30;;;16.30;70.10;;;;;;4979303;28;20037;-81
2024/02/02 11:18:43;;;;;;;2.92;1.27;;;16.30;69.80;;;;;;4999109;28;20120;-81
2024/02/02 11:21:38;;;;;;;0.40;0.30;;;16.40;69.80;;;;;;5023309;28;20041;-81
2024/02/02 11:24:17;;;;;;;0.55;0.30;;;16.30;69.60;;;;;;5016720;28;20026;-80
2024/02/02 11:27:10;;;;;;;1.52;0.50;;;16.30;69.60;;;;;;4982062;28;20476;-81
2024/02/02 11:29:55;;;;;;;1.75;0.40;;;16.30;69.60;;;;;;5013782;28;20029;-80
2024/02/02 11:32:39;;;;;;;0.90;0.30;;;16.30;69.70;;;;;;5004718;28;20212;-80
2024/02/02 11:35:37;;;;;;;1.08;0.40;;;16.30;69.60;;;;;;5010910;28;20030;-82
2024/02/02 11:38:34;;;;;;;2.45;0.50;;;16.30;69.40;;;;;;5016792;28;20041;-81
2024/02/02 11:41:06;;;;;;;4.15;1.70;;;16.40;69.50;;;;;;5015840;28;20079;-81
2024/02/02 11:43:33;;;;;;;2.38;0.43;;;16.40;69.40;;;;;;5020667;28;20030;-81
2024/02/02 11:46:04;;;;;;;1.20;0.65;;;16.50;69.40;;;;;;5016462;28;20061;-80
2024/02/02 11:48:40;;;;;;;1.88;0.43;;;16.50;69.10;;;;;;5003655;28;20695;-81
2024/02/02 11:51:07;;;;;;;0.50;0.30;;;16.60;69.10;;;;;;4996449;28;20282;-80
2024/02/02 11:53:57;;;;;;;0.70;0.40;;;16.60;68.90;;;;;;5001344;28;20087;-81
2024/02/02 11:56:37;;;;;;;0.95;0.68;;;16.70;69.40;;;;;;5021146;28;20059;-81
2024/02/02 11:59:17;;;;;;;1.33;0.30;;;16.70;68.80;;;;;;5030407;28;20048;-80
2024/02/02 12:02:02;;;;;;;1.92;0.40;;;16.70;68.70;;;;;;5013621;28;20037;-80
2024/02/02 12:04:36;;;;;;;0.82;0.60;;;16.80;68.70;;;;;;5027946;28;20036;-82
2024/02/02 12:07:17;;;;;;;1.15;0.40;;;16.70;68.50;;;;;;5008896;28;20038;-81
2024/02/02 12:09:48;;;;;;;1.70;0.63;;;16.80;68.50;;;;;;5016149;28;20050;-81
2024/02/02 12:12:51;;;;;;;1.05;0.30;;;16.80;68.50;;;;;;4995892;28;20039;-80
2024/02/02 12:15:19;;;;;;;;;;;16.80;68.20;;;;;;5019508;28;20068;-81
2024/02/02 12:17:45;;;;;;;2.17;1.25;;;16.90;69.00;;;;;;5016098;28;19928;-77
2024/02/02 12:20:17;;;;;;;0.75;0.30;;;16.90;68.40;;;;;;5026089;28;20292;-79
2024/02/02 12:22:44;;;;;;;1.02;0.30;;;16.90;68.30;;;;;;5016735;28;20033;-82
2024/02/02 12:25:11;;;;;;;3.08;0.47;;;16.90;68.10;;;;;;5024954;28;20056;-80
2024/02/02 12:27:42;;;;;;;0.90;0.45;;;17.00;68.10;;;;;;5014976;28;20190;-80
2024/02/02 12:30:12;;;;;;;2.10;0.50;;;17.00;68.00;;;;;;5016956;28;20393;-80
2024/02/02 12:32:39;;;;;;;2.60;0.77;;;17.10;68.10;;;;;;5025912;28;20044;-80
2024/02/02 12:35:05;;;;;;;2.78;0.50;;;17.10;68.00;;;;;;5001045;28;20045;-79
2024/02/02 12:37:52;;;;;;;1.70;0.50;;;17.10;67.80;;;;;;5011848;28;20498;-80
2024/02/02 12:40:19;;;;;;;1.55;0.77;;;17.10;67.50;;;;;;5015847;28;20117;-79
2024/02/02 12:42:47;;;;;;;2.72;0.93;;;17.20;67.70;;;;;;4992006;28;20080;-81
2024/02/02 12:45:15;;;;;;;1.13;0.55;;;17.30;67.60;;;;;;5011246;28;20112;-78
2024/02/02 12:47:41;;;;;;;2.13;0.60;;;17.30;67.50;;;;;;4973350;28;20049;-81
2024/02/02 12:50:14;;;;;;;1.00;0.65;;;17.40;67.50;;;;;;5017980;28;20116;-80
2024/02/02 12:52:42;;;;;;;1.55;0.60;;;17.40;67.30;;;;;;5015256;28;20048;-80
2024/02/02 12:55:10;;;;;;;2.65;0.57;;;17.50;67.30;;;;;;5012465;28;20513;-80
2024/02/02 12:57:41;;;;;;;1.67;0.38;;;17.50;67.20;;;;;;5013134;28;20505;-81
2024/02/02 13:00:14;;;;;;;2.25;0.63;;;17.60;67.30;;;;;;5022749;28;20044;-80
2024/02/02 13:02:45;;;;;;;1.38;0.60;;;17.60;67.10;;;;;;5020275;28;20033;-81
2024/02/02 13:05:19;;;;;;;0.98;0.60;;;17.60;66.90;;;;;;5008020;28;20074;-82
2024/02/02 13:07:50;;;;;;;2.20;0.73;;;17.60;66.90;;;;;;5007085;28;20152;-81